sensor_id;sensor_type;location;lat;lon;timestamp;pressure;altitude;pressure_sealevel;temperature;humidity
9077;BME280;4574;51.072;17.174;2023-04-19T00:00:45;100676.38;;;12.30;100.00
9077;BME280;4574;51.072;17.174;2023-04-19T00:03:14;100678.91;;;12.22;100.00
9077;BME280;4574;51.072;17.174;2023-04-19T00:05:45;100681.75;;;12.11;100.00
9077;BME280;4574;51.072;17.174;2023-04-19T00:08:14;100675.88;;;12.17;100.00
9077;BME280;4574;51.072;17.174;2023-04-19T00:10:42;100680.59;;;12.23;100.00
9077;BME280;4574;51.072;17.174;2023-04-19T00:13:11;100677.03;;;12.05;100.00
9077;BME280;4574;51.072;17.174;2023-04-19T00:15:40;100675.06;;;12.07;100.00
9077;BME280;4574;51.072;17.174;2023-04-19T00:18:11;100674.78;;;12.01;100.00
9077;BME280;4574;51.072;17.174;2023-04-19T00:20:40;100676.53;;;11.74;100.00
9077;BME280;4574;51.072;17.174;2023-04-19T00:23:10;100663.97;;;11.76;100.00
9077;BME280;4574;51.072;17.174;2023-04-19T00:25:39;100666.16;;;11.90;100.00
9077;BME280;4574;51.072;17.174;2023-04-19T00:28:07;100662.56;;;11.91;100.00
9077;BME280;4574;51.072;17.174;2023-04-19T00:30:36;100659.78;;;11.73;100.00
9077;BME280;4574;51.072;17.174;2023-04-19T00:33:05;100664.38;;;11.81;100.00
9077;BME280;4574;51.072;17.174;2023-04-19T00:35:39;100658.94;;;11.73;100.00
9077;BME280;4574;51.072;17.174;2023-04-19T00:38:10;100660.03;;;11.80;100.00
9077;BME280;4574;51.072;17.174;2023-04-19T00:40:38;100660.44;;;11.85;100.00
9077;BME280;4574;51.072;17.174;2023-04-19T00:43:07;100648.63;;;11.51;100.00
9077;BME280;4574;51.072;17.174;2023-04-19T00:45:35;100643.91;;;11.54;100.00
9077;BME280;4574;51.072;17.174;2023-04-19T00:48:05;100645.56;;;11.46;100.00
9077;BME280;4574;51.072;17.174;2023-04-19T00:50:34;100639.16;;;11.39;100.00
9077;BME280;4574;51.072;17.174;2023-04-19T00:53:03;100636.94;;;11.34;100.00
9077;BME280;4574;51.072;17.174;2023-04-19T00:55:34;100633.47;;;11.05;100.00
9077;BME280;4574;51.072;17.174;2023-04-19T00:58:05;100631.66;;;11.25;100.00
9077;BME280;4574;51.072;17.174;2023-04-19T01:00:34;100630.50;;;11.37;100.00
9077;BME280;4574;51.072;17.174;2023-04-19T01:03:03;100618.09;;;11.28;100.00
9077;BME280;4574;51.072;17.174;2023-04-19T01:05:32;100624.69;;;11.14;100.00
9077;BME280;4574;51.072;17.174;2023-04-19T01:08:01;100628.44;;;11.21;100.00
9077;BME280;4574;51.072;17.174;2023-04-19T01:10:29;100615.75;;;11.06;100.00
9077;BME280;4574;51.072;17.174;2023-04-19T01:12:59;100607.41;;;11.01;100.00
9077;BME280;4574;51.072;17.174;2023-04-19T01:15:29;100616.88;;;11.13;100.00
9077;BME280;4574;51.072;17.174;2023-04-19T01:17:58;100623.03;;;11.13;100.00
9077;BME280;4574;51.072;17.174;2023-04-19T01:20:28;100617.97;;;11.20;100.00
9077;BME280;4574;51.072;17.174;2023-04-19T01:22:58;100609.63;;;11.05;100.00
9077;BME280;4574;51.072;17.174;2023-04-19T01:25:27;100606.28;;;10.75;100.00
9077;BME280;4574;51.072;17.174;2023-04-19T01:27:56;100606.53;;;10.81;100.00
9077;BME280;4574;51.072;17.174;2023-04-19T01:30:25;100606.00;;;10.78;100.00
9077;BME280;4574;51.072;17.174;2023-04-19T01:32:54;100610.59;;;10.76;100.00
9077;BME280;4574;51.072;17.174;2023-04-19T01:35:23;100620.47;;;10.55;100.00
9077;BME280;4574;51.072;17.174;2023-04-19T01:37:52;100606.25;;;10.65;100.00
9077;BME280;4574;51.072;17.174;2023-04-19T01:40:24;100609.19;;;10.72;100.00
9077;BME280;4574;51.072;17.174;2023-04-19T01:42:53;100601.09;;;10.55;100.00
9077;BME280;4574;51.072;17.174;2023-04-19T01:45:21;100600.97;;;10.75;100.00
9077;BME280;4574;51.072;17.174;2023-04-19T01:47:50;100596.81;;;10.82;100.00
9077;BME280;4574;51.072;17.174;2023-04-19T01:50:19;100596.53;;;10.85;100.00
9077;BME280;4574;51.072;17.174;2023-04-19T01:52:48;100591.22;;;10.66;100.00
9077;BME280;4574;51.072;17.174;2023-04-19T01:55:16;100585.09;;;10.56;100.00
9077;BME280;4574;51.072;17.174;2023-04-19T01:57:46;100594.28;;;10.52;100.00
9077;BME280;4574;51.072;17.174;2023-04-19T02:00:15;100598.41;;;10.36;100.00
9077;BME280;4574;51.072;17.174;2023-04-19T02:02:44;100584.50;;;10.43;100.00
9077;BME280;4574;51.072;17.174;2023-04-19T02:05:13;100592.88;;;10.48;100.00
9077;BME280;4574;51.072;17.174;2023-04-19T02:07:41;100590.47;;;10.26;100.00
9077;BME280;4574;51.072;17.174;2023-04-19T02:10:10;100591.41;;;10.16;100.00
9077;BME280;4574;51.072;17.174;2023-04-19T02:12:40;100592.28;;;10.35;100.00
9077;BME280;4574;51.072;17.174;2023-04-19T02:15:10;100582.13;;;10.40;100.00
9077;BME280;4574;51.072;17.174;2023-04-19T02:17:39;100581.97;;;10.32;100.00
9077;BME280;4574;51.072;17.174;2023-04-19T02:20:08;100581.25;;;10.21;100.00
9077;BME280;4574;51.072;17.174;2023-04-19T02:22:37;100575.28;;;9.89;100.00
9077;BME280;4574;51.072;17.174;2023-04-19T02:25:07;100576.19;;;9.78;100.00
9077;BME280;4574;51.072;17.174;2023-04-19T02:27:36;100571.69;;;9.69;100.00
9077;BME280;4574;51.072;17.174;2023-04-19T02:30:06;100580.56;;;9.59;100.00
9077;BME280;4574;51.072;17.174;2023-04-19T02:32:38;100581.88;;;9.74;100.00
9077;BME280;4574;51.072;17.174;2023-04-19T02:35:07;100568.84;;;9.52;100.00
9077;BME280;4574;51.072;17.174;2023-04-19T02:37:36;100574.84;;;9.33;100.00
9077;BME280;4574;51.072;17.174;2023-04-19T02:40:07;100579.94;;;9.46;100.00
9077;BME280;4574;51.072;17.174;2023-04-19T02:42:36;100565.75;;;9.47;100.00
9077;BME280;4574;51.072;17.174;2023-04-19T02:45:05;100571.94;;;9.36;100.00
9077;BME280;4574;51.072;17.174;2023-04-19T02:47:34;100572.84;;;9.46;100.00
9077;BME280;4574;51.072;17.174;2023-04-19T02:50:05;100566.53;;;9.38;100.00
9077;BME280;4574;51.072;17.174;2023-04-19T02:52:34;100572.03;;;9.26;100.00
9077;BME280;4574;51.072;17.174;2023-04-19T02:55:03;100555.41;;;9.14;100.00
9077;BME280;4574;51.072;17.174;2023-04-19T02:57:31;100554.94;;;9.09;100.00
9077;BME280;4574;51.072;17.174;2023-04-19T03:00:00;100555.28;;;9.16;100.00
9077;BME280;4574;51.072;17.174;2023-04-19T03:02:30;100554.75;;;9.22;100.00
9077;BME280;4574;51.072;17.174;2023-04-19T03:04:59;100552.50;;;9.17;99.61
9077;BME280;4574;51.072;17.174;2023-04-19T03:07:29;100552.19;;;9.11;99.28
9077;BME280;4574;51.072;17.174;2023-04-19T03:09:58;100548.13;;;9.07;99.24
9077;BME280;4574;51.072;17.174;2023-04-19T03:12:27;100533.28;;;9.15;100.00
9077;BME280;4574;51.072;17.174;2023-04-19T03:14:55;100541.63;;;9.11;98.15
9077;BME280;4574;51.072;17.174;2023-04-19T03:17:24;100540.13;;;8.97;98.26
9077;BME280;4574;51.072;17.174;2023-04-19T03:19:52;100534.34;;;9.03;98.17
9077;BME280;4574;51.072;17.174;2023-04-19T03:22:22;100517.28;;;8.87;97.43
9077;BME280;4574;51.072;17.174;2023-04-19T03:24:52;100537.00;;;8.83;98.87
9077;BME280;4574;51.072;17.174;2023-04-19T03:27:21;100540.84;;;8.79;98.44
9077;BME280;4574;51.072;17.174;2023-04-19T03:29:50;100524.88;;;8.60;98.64
9077;BME280;4574;51.072;17.174;2023-04-19T03:32:18;100546.53;;;8.63;98.93
9077;BME280;4574;51.072;17.174;2023-04-19T03:34:47;100535.81;;;8.76;99.66
9077;BME280;4574;51.072;17.174;2023-04-19T03:37:16;100530.75;;;8.84;99.30
9077;BME280;4574;51.072;17.174;2023-04-19T03:39:44;100532.06;;;8.78;99.19
9077;BME280;4574;51.072;17.174;2023-04-19T03:42:14;100528.81;;;8.86;99.52
9077;BME280;4574;51.072;17.174;2023-04-19T03:44:43;100531.13;;;9.00;100.00
9077;BME280;4574;51.072;17.174;2023-04-19T03:47:12;100525.16;;;8.98;100.00
9077;BME280;4574;51.072;17.174;2023-04-19T03:49:40;100526.03;;;9.08;99.74
9077;BME280;4574;51.072;17.174;2023-04-19T03:52:09;100517.84;;;9.11;100.00
9077;BME280;4574;51.072;17.174;2023-04-19T03:54:37;100521.53;;;8.99;100.00
9077;BME280;4574;51.072;17.174;2023-04-19T03:57:06;100523.28;;;8.89;100.00
9077;BME280;4574;51.072;17.174;2023-04-19T03:59:36;100529.78;;;8.85;100.00
9077;BME280;4574;51.072;17.174;2023-04-19T04:02:05;100534.97;;;8.75;100.00
9077;BME280;4574;51.072;17.174;2023-04-19T04:04:34;100531.00;;;8.81;100.00
9077;BME280;4574;51.072;17.174;2023-04-19T04:07:02;100529.78;;;8.85;100.00
9077;BME280;4574;51.072;17.174;2023-04-19T04:09:31;100540.25;;;8.75;99.99
9077;BME280;4574;51.072;17.174;2023-04-19T04:12:00;100537.25;;;8.80;100.00
9077;BME280;4574;51.072;17.174;2023-04-19T04:14:28;100525.31;;;8.65;99.37
9077;BME280;4574;51.072;17.174;2023-04-19T04:16:58;100531.72;;;8.51;99.67
9077;BME280;4574;51.072;17.174;2023-04-19T04:19:27;100547.66;;;8.61;98.42
9077;BME280;4574;51.072;17.174;2023-04-19T04:21:56;100548.72;;;8.58;99.59
9077;BME280;4574;51.072;17.174;2023-04-19T04:24:24;100538.00;;;8.71;99.76
9077;BME280;4574;51.072;17.174;2023-04-19T04:26:53;100534.84;;;8.77;98.66
9077;BME280;4574;51.072;17.174;2023-04-19T04:29:26;100544.03;;;8.30;100.00
9077;BME280;4574;51.072;17.174;2023-04-19T04:31:55;100553.19;;;8.47;100.00
9077;BME280;4574;51.072;17.174;2023-04-19T04:34:25;100551.31;;;8.38;100.00
9077;BME280;4574;51.072;17.174;2023-04-19T04:36:54;100557.75;;;8.45;100.00
9077;BME280;4574;51.072;17.174;2023-04-19T04:39:22;100558.34;;;8.48;100.00
9077;BME280;4574;51.072;17.174;2023-04-19T04:41:51;100548.00;;;8.56;100.00
9077;BME280;4574;51.072;17.174;2023-04-19T04:44:19;100545.97;;;8.60;100.00
9077;BME280;4574;51.072;17.174;2023-04-19T04:46:48;100546.25;;;8.46;100.00
9077;BME280;4574;51.072;17.174;2023-04-19T04:49:17;100541.34;;;8.41;100.00
9077;BME280;4574;51.072;17.174;2023-04-19T04:51:47;100544.25;;;8.38;100.00
9077;BME280;4574;51.072;17.174;2023-04-19T04:54:15;100544.03;;;8.30;100.00
9077;BME280;4574;51.072;17.174;2023-04-19T04:56:44;100547.75;;;8.28;100.00
9077;BME280;4574;51.072;17.174;2023-04-19T04:59:13;100545.34;;;8.25;100.00
9077;BME280;4574;51.072;17.174;2023-04-19T05:01:41;100554.22;;;8.24;100.00
9077;BME280;4574;51.072;17.174;2023-04-19T05:04:10;100557.34;;;8.07;100.00
9077;BME280;4574;51.072;17.174;2023-04-19T05:06:38;100546.59;;;7.88;100.00
9077;BME280;4574;51.072;17.174;2023-04-19T05:09:08;100556.34;;;7.66;100.00
9077;BME280;4574;51.072;17.174;2023-04-19T05:11:37;100547.09;;;7.60;100.00
9077;BME280;4574;51.072;17.174;2023-04-19T05:14:05;100542.06;;;7.46;100.00
9077;BME280;4574;51.072;17.174;2023-04-19T05:16:34;100550.94;;;7.67;100.00
9077;BME280;4574;51.072;17.174;2023-04-19T05:19:03;100541.22;;;7.79;100.00
9077;BME280;4574;51.072;17.174;2023-04-19T05:21:32;100550.44;;;7.84;100.00
9077;BME280;4574;51.072;17.174;2023-04-19T05:24:01;100550.44;;;7.62;100.00
9077;BME280;4574;51.072;17.174;2023-04-19T05:26:31;100535.69;;;7.60;100.00
9077;BME280;4574;51.072;17.174;2023-04-19T05:29:00;100539.56;;;7.67;100.00
9077;BME280;4574;51.072;17.174;2023-04-19T05:31:29;100545.56;;;7.69;100.00
9077;BME280;4574;51.072;17.174;2023-04-19T05:33:57;100544.69;;;7.68;100.00
9077;BME280;4574;51.072;17.174;2023-04-19T05:36:26;100546.13;;;7.50;100.00
9077;BME280;4574;51.072;17.174;2023-04-19T05:38:54;100541.09;;;7.36;100.00
9077;BME280;4574;51.072;17.174;2023-04-19T05:41:23;100533.78;;;7.18;100.00
9077;BME280;4574;51.072;17.174;2023-04-19T05:43:53;100537.28;;;7.29;100.00
9077;BME280;4574;51.072;17.174;2023-04-19T05:46:22;100526.72;;;7.07;100.00
9077;BME280;4574;51.072;17.174;2023-04-19T05:48:51;100530.63;;;7.02;100.00
9077;BME280;4574;51.072;17.174;2023-04-19T05:51:20;100530.66;;;7.13;100.00
9077;BME280;4574;51.072;17.174;2023-04-19T05:53:48;100525.63;;;7.10;100.00
9077;BME280;4574;51.072;17.174;2023-04-19T05:56:17;100524.53;;;6.90;100.00
9077;BME280;4574;51.072;17.174;2023-04-19T05:58:45;100526.25;;;7.13;100.00
9077;BME280;4574;51.072;17.174;2023-04-19T06:01:15;100509.56;;;6.91;100.00
9077;BME280;4574;51.072;17.174;2023-04-19T06:03:44;100517.97;;;6.61;100.00
9077;BME280;4574;51.072;17.174;2023-04-19T06:06:14;100532.66;;;6.53;100.00
9077;BME280;4574;51.072;17.174;2023-04-19T06:08:42;100520.59;;;6.61;100.00
9077;BME280;4574;51.072;17.174;2023-04-19T06:11:11;100527.34;;;6.76;100.00
9077;BME280;4574;51.072;17.174;2023-04-19T06:13:54;100528.03;;;6.67;100.00
9077;BME280;4574;51.072;17.174;2023-04-19T06:16:24;100535.59;;;6.49;100.00
9077;BME280;4574;51.072;17.174;2023-04-19T06:18:53;100529.28;;;6.51;100.00
9077;BME280;4574;51.072;17.174;2023-04-19T06:21:24;100525.94;;;6.26;100.00
9077;BME280;4574;51.072;17.174;2023-04-19T06:23:53;100534.06;;;6.46;100.00
9077;BME280;4574;51.072;17.174;2023-04-19T06:26:22;100522.81;;;6.21;100.00
9077;BME280;4574;51.072;17.174;2023-04-19T06:28:50;100531.88;;;6.17;100.00
9077;BME280;4574;51.072;17.174;2023-04-19T06:31:19;100538.00;;;6.05;100.00
9077;BME280;4574;51.072;17.174;2023-04-19T06:33:49;100536.28;;;5.93;100.00
9077;BME280;4574;51.072;17.174;2023-04-19T06:36:18;100533.41;;;6.08;100.00
9077;BME280;4574;51.072;17.174;2023-04-19T06:38:47;100540.03;;;6.25;100.00
9077;BME280;4574;51.072;17.174;2023-04-19T06:41:16;100536.75;;;6.10;100.00
9077;BME280;4574;51.072;17.174;2023-04-19T06:43:45;100534.66;;;6.03;100.00
9077;BME280;4574;51.072;17.174;2023-04-19T06:46:13;100541.66;;;6.15;100.00
9077;BME280;4574;51.072;17.174;2023-04-19T06:48:42;100532.97;;;6.02;100.00
9077;BME280;4574;51.072;17.174;2023-04-19T06:51:12;100540.56;;;5.94;100.00
9077;BME280;4574;51.072;17.174;2023-04-19T06:53:40;100541.00;;;6.00;100.00
9077;BME280;4574;51.072;17.174;2023-04-19T06:56:10;100535.28;;;6.06;100.00
9077;BME280;4574;51.072;17.174;2023-04-19T06:58:39;100539.66;;;6.18;100.00
9077;BME280;4574;51.072;17.174;2023-04-19T07:01:08;100536.34;;;6.04;100.00
9077;BME280;4574;51.072;17.174;2023-04-19T07:03:38;100540.38;;;6.20;100.00
9077;BME280;4574;51.072;17.174;2023-04-19T07:06:06;100544.56;;;6.46;100.00
9077;BME280;4574;51.072;17.174;2023-04-19T07:08:36;100544.75;;;6.66;100.00
9077;BME280;4574;51.072;17.174;2023-04-19T07:11:16;100544.44;;;6.71;100.00
9077;BME280;4574;51.072;17.174;2023-04-19T07:13:46;100524.41;;;6.57;100.00
9077;BME280;4574;51.072;17.174;2023-04-19T07:16:15;100539.22;;;6.58;100.00
9077;BME280;4574;51.072;17.174;2023-04-19T07:18:44;100528.66;;;6.48;100.00
9077;BME280;4574;51.072;17.174;2023-04-19T07:21:12;100522.19;;;6.41;100.00
9077;BME280;4574;51.072;17.174;2023-04-19T07:23:42;100531.38;;;6.69;100.00
9077;BME280;4574;51.072;17.174;2023-04-19T07:26:11;100531.00;;;6.63;100.00
9077;BME280;4574;51.072;17.174;2023-04-19T07:28:40;100525.63;;;6.64;100.00
9077;BME280;4574;51.072;17.174;2023-04-19T07:31:13;100530.09;;;6.75;100.00
9077;BME280;4574;51.072;17.174;2023-04-19T07:33:43;100517.91;;;6.74;100.00
9077;BME280;4574;51.072;17.174;2023-04-19T07:36:11;100521.66;;;6.93;100.00
9077;BME280;4574;51.072;17.174;2023-04-19T07:38:41;100522.03;;;7.11;100.00
9077;BME280;4574;51.072;17.174;2023-04-19T07:41:10;100522.63;;;7.03;100.00
9077;BME280;4574;51.072;17.174;2023-04-19T07:43:38;100525.03;;;7.06;100.00
9077;BME280;4574;51.072;17.174;2023-04-19T07:46:12;100522.84;;;6.89;100.00
9077;BME280;4574;51.072;17.174;2023-04-19T07:48:42;100523.22;;;6.96;100.00
9077;BME280;4574;51.072;17.174;2023-04-19T07:51:11;100500.16;;;6.99;100.00
9077;BME280;4574;51.072;17.174;2023-04-19T07:53:42;100507.91;;;7.12;100.00
9077;BME280;4574;51.072;17.174;2023-04-19T07:56:10;100506.88;;;7.25;100.00
9077;BME280;4574;51.072;17.174;2023-04-19T07:58:40;100516.44;;;7.37;100.00
9077;BME280;4574;51.072;17.174;2023-04-19T08:01:11;100519.16;;;7.14;100.00
9077;BME280;4574;51.072;17.174;2023-04-19T08:03:39;100507.44;;;7.07;100.00
9077;BME280;4574;51.072;17.174;2023-04-19T08:06:09;100509.94;;;6.97;100.00
9077;BME280;4574;51.072;17.174;2023-04-19T08:08:39;100502.06;;;6.97;100.00
9077;BME280;4574;51.072;17.174;2023-04-19T08:11:09;100508.75;;;6.90;100.00
9077;BME280;4574;51.072;17.174;2023-04-19T08:13:40;100509.94;;;6.97;100.00
9077;BME280;4574;51.072;17.174;2023-04-19T08:16:21;100505.91;;;7.04;100.00
9077;BME280;4574;51.072;17.174;2023-04-19T08:18:57;100512.38;;;7.11;100.00
9077;BME280;4574;51.072;17.174;2023-04-19T08:21:26;100509.34;;;7.05;100.00
9077;BME280;4574;51.072;17.174;2023-04-19T08:24:07;100498.94;;;7.03;100.00
9077;BME280;4574;51.072;17.174;2023-04-19T08:26:37;100489.88;;;7.07;100.00
9077;BME280;4574;51.072;17.174;2023-04-19T08:29:06;100495.63;;;7.23;100.00
9077;BME280;4574;51.072;17.174;2023-04-19T08:31:34;100510.09;;;7.29;100.00
9077;BME280;4574;51.072;17.174;2023-04-19T08:34:03;100528.91;;;7.35;100.00
9077;BME280;4574;51.072;17.174;2023-04-19T08:36:32;100508.78;;;7.23;100.00
9077;BME280;4574;51.072;17.174;2023-04-19T08:39:11;100506.00;;;7.80;100.00
9077;BME280;4574;51.072;17.174;2023-04-19T08:42:03;100500.34;;;9.10;100.00
9077;BME280;4574;51.072;17.174;2023-04-19T08:44:50;100498.47;;;9.01;100.00
9077;BME280;4574;51.072;17.174;2023-04-19T08:47:40;100500.09;;;7.98;100.00
9077;BME280;4574;51.072;17.174;2023-04-19T08:50:11;100499.66;;;7.82;100.00
9077;BME280;4574;51.072;17.174;2023-04-19T08:53:04;100501.72;;;7.79;100.00
9077;BME280;4574;51.072;17.174;2023-04-19T08:55:51;100496.06;;;7.83;100.00
9077;BME280;4574;51.072;17.174;2023-04-19T08:58:44;100505.78;;;7.72;100.00
9077;BME280;4574;51.072;17.174;2023-04-19T09:01:16;100493.44;;;7.72;100.00
9077;BME280;4574;51.072;17.174;2023-04-19T09:04:01;100497.00;;;7.82;100.00
9077;BME280;4574;51.072;17.174;2023-04-19T09:06:51;100499.09;;;7.68;100.00
9077;BME280;4574;51.072;17.174;2023-04-19T09:09:21;100486.63;;;7.37;100.00
9077;BME280;4574;51.072;17.174;2023-04-19T09:12:14;100489.72;;;7.53;100.00
9077;BME280;4574;51.072;17.174;2023-04-19T09:14:46;100486.63;;;7.48;100.00
9077;BME280;4574;51.072;17.174;2023-04-19T09:17:17;100493.81;;;7.35;100.00
9077;BME280;4574;51.072;17.174;2023-04-19T09:19:47;100472.97;;;7.32;100.00
9077;BME280;4574;51.072;17.174;2023-04-19T09:22:17;100487.09;;;7.31;100.00
9077;BME280;4574;51.072;17.174;2023-04-19T09:24:45;100480.06;;;7.42;100.00
9077;BME280;4574;51.072;17.174;2023-04-19T09:27:24;100495.47;;;7.47;100.00
9077;BME280;4574;51.072;17.174;2023-04-19T09:29:55;100489.97;;;7.39;100.00
9077;BME280;4574;51.072;17.174;2023-04-19T09:32:24;100487.97;;;7.31;100.00
9077;BME280;4574;51.072;17.174;2023-04-19T09:34:54;100492.84;;;7.25;100.00
9077;BME280;4574;51.072;17.174;2023-04-19T09:37:23;100484.84;;;7.26;100.00
9077;BME280;4574;51.072;17.174;2023-04-19T09:40:22;100487.09;;;7.20;100.00
9077;BME280;4574;51.072;17.174;2023-04-19T09:42:51;100480.31;;;7.17;100.00
9077;BME280;4574;51.072;17.174;2023-04-19T09:45:25;100481.13;;;7.29;100.00
9077;BME280;4574;51.072;17.174;2023-04-19T09:48:01;100487.72;;;7.34;100.00
9077;BME280;4574;51.072;17.174;2023-04-19T09:50:30;100491.78;;;7.49;100.00
9077;BME280;4574;51.072;17.174;2023-04-19T09:53:16;100494.53;;;7.48;100.00
9077;BME280;4574;51.072;17.174;2023-04-19T09:55:45;100494.19;;;7.41;100.00
9077;BME280;4574;51.072;17.174;2023-04-19T09:58:27;100476.00;;;7.27;100.00
9077;BME280;4574;51.072;17.174;2023-04-19T10:01:00;100489.50;;;7.23;100.00
9077;BME280;4574;51.072;17.174;2023-04-19T10:03:42;100480.78;;;7.22;100.00
9077;BME280;4574;51.072;17.174;2023-04-19T10:06:14;100493.47;;;7.28;100.00
9077;BME280;4574;51.072;17.174;2023-04-19T10:08:48;100492.84;;;7.25;100.00
9077;BME280;4574;51.072;17.174;2023-04-19T10:11:18;100487.00;;;7.21;100.00
9077;BME280;4574;51.072;17.174;2023-04-19T10:13:51;100484.84;;;7.26;100.00
9077;BME280;4574;51.072;17.174;2023-04-19T10:16:23;100479.59;;;7.15;100.00
9077;BME280;4574;51.072;17.174;2023-04-19T10:18:53;100491.56;;;7.19;100.00
9077;BME280;4574;51.072;17.174;2023-04-19T10:21:22;100485.44;;;7.19;100.00
9077;BME280;4574;51.072;17.174;2023-04-19T10:23:51;100482.31;;;7.25;100.00
9077;BME280;4574;51.072;17.174;2023-04-19T10:26:20;100481.25;;;7.27;100.00
9077;BME280;4574;51.072;17.174;2023-04-19T10:28:50;100477.44;;;7.20;100.00
9077;BME280;4574;51.072;17.174;2023-04-19T10:31:19;100477.28;;;7.22;100.00
9077;BME280;4574;51.072;17.174;2023-04-19T10:33:51;100473.13;;;7.19;100.00
9077;BME280;4574;51.072;17.174;2023-04-19T10:36:20;100472.75;;;7.24;100.00
9077;BME280;4574;51.072;17.174;2023-04-19T10:38:50;100467.63;;;7.33;100.00
9077;BME280;4574;51.072;17.174;2023-04-19T10:41:20;100475.13;;;7.38;100.00
9077;BME280;4574;51.072;17.174;2023-04-19T10:44:10;100471.19;;;7.43;100.00
9077;BME280;4574;51.072;17.174;2023-04-19T10:46:38;100473.59;;;7.46;100.00
9077;BME280;4574;51.072;17.174;2023-04-19T10:49:08;100473.81;;;7.54;100.00
9077;BME280;4574;51.072;17.174;2023-04-19T10:51:41;100479.44;;;7.50;100.00
9077;BME280;4574;51.072;17.174;2023-04-19T10:54:28;100470.72;;;7.49;100.00
9077;BME280;4574;51.072;17.174;2023-04-19T10:57:01;100476.81;;;7.50;100.00
9077;BME280;4574;51.072;17.174;2023-04-19T10:59:32;100462.09;;;7.36;100.00
9077;BME280;4574;51.072;17.174;2023-04-19T11:02:02;100469.16;;;7.36;100.00
9077;BME280;4574;51.072;17.174;2023-04-19T11:07:40;100470.25;;;7.33;100.00
9077;BME280;4574;51.072;17.174;2023-04-19T11:10:09;100469.88;;;7.38;100.00
9077;BME280;4574;51.072;17.174;2023-04-19T11:12:42;100464.13;;;7.44;100.00
9077;BME280;4574;51.072;17.174;2023-04-19T11:15:11;100465.31;;;7.40;100.00
9077;BME280;4574;51.072;17.174;2023-04-19T11:17:39;100463.53;;;7.40;100.00
9077;BME280;4574;51.072;17.174;2023-04-19T11:20:09;100460.91;;;7.40;100.00
9077;BME280;4574;51.072;17.174;2023-04-19T11:22:41;100462.19;;;7.46;100.00
9077;BME280;4574;51.072;17.174;2023-04-19T11:25:11;100438.66;;;7.33;100.00
9077;BME280;4574;51.072;17.174;2023-04-19T11:27:40;100456.13;;;7.45;100.00
9077;BME280;4574;51.072;17.174;2023-04-19T11:30:12;100465.56;;;7.48;100.00
9077;BME280;4574;51.072;17.174;2023-04-19T11:32:44;100463.16;;;7.45;100.00
9077;BME280;4574;51.072;17.174;2023-04-19T11:35:17;100463.78;;;7.48;100.00
9077;BME280;4574;51.072;17.174;2023-04-19T11:37:48;100473.13;;;7.41;100.00
9077;BME280;4574;51.072;17.174;2023-04-19T11:40:18;100460.19;;;7.38;100.00
9077;BME280;4574;51.072;17.174;2023-04-19T11:42:53;100463.88;;;7.36;100.00
9077;BME280;4574;51.072;17.174;2023-04-19T11:45:26;100469.28;;;7.45;100.00
9077;BME280;4574;51.072;17.174;2023-04-19T11:48:00;100468.78;;;7.51;100.00
9077;BME280;4574;51.072;17.174;2023-04-19T11:50:30;100466.19;;;7.29;100.00
9077;BME280;4574;51.072;17.174;2023-04-19T11:53:09;100466.19;;;7.29;100.00
9077;BME280;4574;51.072;17.174;2023-04-19T11:55:41;100479.34;;;7.29;100.00
9077;BME280;4574;51.072;17.174;2023-04-19T11:58:26;100465.31;;;7.18;100.00
9077;BME280;4574;51.072;17.174;2023-04-19T12:00:56;100469.53;;;7.31;100.00
9077;BME280;4574;51.072;17.174;2023-04-19T12:03:26;100473.59;;;7.46;100.00
9077;BME280;4574;51.072;17.174;2023-04-19T12:05:56;100471.06;;;7.45;100.00
9077;BME280;4574;51.072;17.174;2023-04-19T12:08:34;100472.63;;;7.36;100.00
9077;BME280;4574;51.072;17.174;2023-04-19T12:11:03;100465.69;;;7.46;100.00
9077;BME280;4574;51.072;17.174;2023-04-19T12:13:33;100465.56;;;7.37;100.00
9077;BME280;4574;51.072;17.174;2023-04-19T12:16:02;100450.38;;;7.40;100.00
9077;BME280;4574;51.072;17.174;2023-04-19T12:18:45;100462.56;;;7.63;100.00
9077;BME280;4574;51.072;17.174;2023-04-19T12:21:25;100469.00;;;7.70;100.00
9077;BME280;4574;51.072;17.174;2023-04-19T12:23:56;100469.47;;;7.75;100.00
9077;BME280;4574;51.072;17.174;2023-04-19T12:26:27;100468.09;;;7.49;100.00
9077;BME280;4574;51.072;17.174;2023-04-19T12:28:56;100478.38;;;7.52;100.00
9077;BME280;4574;51.072;17.174;2023-04-19T12:31:25;100469.75;;;7.61;100.00
9077;BME280;4574;51.072;17.174;2023-04-19T12:33:54;100473.19;;;7.62;100.00
9077;BME280;4574;51.072;17.174;2023-04-19T12:36:23;100461.34;;;7.67;100.00
9077;BME280;4574;51.072;17.174;2023-04-19T12:38:52;100454.41;;;7.66;100.00
9077;BME280;4574;51.072;17.174;2023-04-19T12:41:22;100462.53;;;7.74;100.00
9077;BME280;4574;51.072;17.174;2023-04-19T12:43:51;100464.47;;;7.61;100.00
9077;BME280;4574;51.072;17.174;2023-04-19T12:46:19;100465.69;;;7.46;100.00
9077;BME280;4574;51.072;17.174;2023-04-19T12:48:48;100461.13;;;7.48;100.00
9077;BME280;4574;51.072;17.174;2023-04-19T12:51:16;100456.59;;;7.28;100.00
9077;BME280;4574;51.072;17.174;2023-04-19T12:53:47;100457.44;;;7.18;100.00
9077;BME280;4574;51.072;17.174;2023-04-19T12:56:16;100470.50;;;7.30;100.00
9077;BME280;4574;51.072;17.174;2023-04-19T12:58:46;100466.03;;;7.42;100.00
9077;BME280;4574;51.072;17.174;2023-04-19T13:01:15;100467.59;;;7.44;100.00
9077;BME280;4574;51.072;17.174;2023-04-19T13:03:44;100464.84;;;7.35;100.00
9077;BME280;4574;51.072;17.174;2023-04-19T13:06:13;100468.09;;;7.16;100.00
9077;BME280;4574;51.072;17.174;2023-04-19T13:08:43;100466.03;;;7.20;100.00
9077;BME280;4574;51.072;17.174;2023-04-19T13:11:14;100450.63;;;7.04;100.00
9077;BME280;4574;51.072;17.174;2023-04-19T13:13:43;100468.34;;;7.13;100.00
9077;BME280;4574;51.072;17.174;2023-04-19T13:16:13;100472.03;;;7.22;100.00
9077;BME280;4574;51.072;17.174;2023-04-19T13:18:41;100476.09;;;7.26;100.00
9077;BME280;4574;51.072;17.174;2023-04-19T13:21:10;100471.53;;;7.28;100.00